Radar is unstable, so pay attention to the date and time in the image

Latest  Newer  Older  Last 2 hours animation  Current image  Latest image  Summary per 24h (testing)  Summary per 7d (testing) 
Cloud coverage sat images  Infrared sat images 
Real-time lightning map

All time is UTC (add 2 hours in wintertime, 3 hours in DST for Latvia local time)

2020/07/13 23:50 EVRA 132350Z VRB02KT CAVOK 11/10 Q1017 NOSIG
2020/07/13 23:50 EVLA 132350Z AUTO VRB02KT 9999 SCT010/// 11/10 Q1017
2020/07/13 23:50 EVVA 132350Z AUTO 23001KT 2400 PRFG NSC 11/11 Q1016
2020/07/13 23:50 EYKA 132350Z AUTO 27004KT 9999 NCD 10/08 Q1018
2020/07/13 23:50 EYPA 132350Z AUTO 25003KT 210V350 9999 BKN013/// 15/12 Q1018
2020/07/13 23:50 EYSA 132350Z AUTO 27006KT 9999NDV NCD 10/09 Q1018
2020/07/13 23:50 EYVI 132350Z 32004KT CAVOK 12/10 Q1018 NOSIG
2020/07/13 14:50 EEKA 131450Z 29008KT 240V330 9999 FEW023 17/11 Q1015
2020/07/13 23:50 EEKE 132350Z AUTO 28003KT 9999NDV NCD 11/11 Q1016
2020/07/13 12:50 EEPU 131250Z 03005KT 360V090 9999 BKN035 18/16 Q1015
2020/07/13 23:50 EETN 132350Z 26004KT 9999 FEW022CB SCT030 12/11 Q1014
2020/07/13 23:50 EETU 132350Z AUTO 26005KT 9999 NCD 10/09 Q1015
   RIGA AIRPORT     EVRA               56 55N  023 58E   10   X     T          6 LV
   LIEPAJA INTL     EVLA        26406  56 31N  021 06E    4   X                8 LV
   VENTPILS         EVVA               57 21N  021 33E    6   X                8 LV
   KAUNAS           EYKA               54 54N  023 55E   77   X     T          6 LT
   PALANGA INTL     EYPA               55 55N  021 03E   10   X                6 LT
   SIAULIAI INTL    EYSA               55 54N  023 24E  135   X     T          6 LT
   VILNIUS INTL     EYVI        26730  54 38N  025 17E  197   X     T          6 LT
   KARDLA           EEKA        26116  58 59N  022 50E    4   X                8 EE
   KURESSAARE       EEKE               58 14N  022 31E    4   X                8 EE
   PARNU            EEPU               58 25N  024 28E   14   X                8 EE
   TALLINN          EETN        26038  59 24N  024 49E   40   X     T          8 EE
   TARTU            EETU               58 19N  026 41E   67   X                8 EE

rain/snow radar image from www.meteo.lv and METAR data from weather.noaa.gov